Westport, Oklahoma
Current Conditions -  °F | °C
As of 6:55 PM on Wednesday 22 Oct 2014 (Local Time) from KOWP Reporting Station
Clear Clear  
Wind Chill: 23°   Ceiling: Unl
Heat Index: 23°   Visibility: 10mi
Dew Point: 14°   Wind: 5mph
Humidity: 58%   Direction: 150°SSE
Pressure: 30.09"   Gusts: NA
Location:  36.248°N, 96.4789°W
Report Text: KOWP 222355Z AUTO 15004KT 10SM CLR 23/14 A3009 RMK AO2 T02270140 10276 20227
Loading
Personal Weather Stations






























Interactive Weather Map
Tropical Storm Tracking
New forecast layout! Learn more

10-Day Weather Forecast

Advertisements
Track Severe Weather on mobile